Aeroporto :
LOGIN :

Iscrizione | Disclaimer

   EN    FR    IT 

 










Sommario :    VFR   VFR Marginale   IFR   IFR Intensivo   IFR Molto Intensivo
Visibilità : 
Base nubi : 
>= 8 km
>= 3000ft
5 / 8 km
1000 / 3000 ft
1500m / 5 km
500 / 1000 ft
800 / 1500m
200 / 500 ft
< 800m
< 200 ft
Simboli :   Temporali  Nebbia  Neve Forte  Precipitazioni Forti  Vento > 20 kt
SIGMETs :   Varie  Temporali  Ghiacco  Turbolenza  Onda orograficha  Ceneri Vulcaniche







- Altitudine del aeroporto : 495 ft
- Codice IATA : BUD


LHBP - Budapest Ferihegy

ULTIMO METAR :
  • 262030Z 28009KT CAVOK 05/M05 Q1022 NOSIG

METARs OBSOLETI :
  • 262000Z 30009KT CAVOK 06/M05 Q1022 NOSIG
  • 261930Z 30012KT CAVOK 07/M05 Q1022 NOSIG
  • 261900Z 29013KT CAVOK 07/M05 Q1022 NOSIG
  • 261830Z 29017KT CAVOK 07/M05 Q1022 NOSIG
  • 261800Z 30018KT CAVOK 08/M05 Q1022 NOSIG

TAF TAF LHBP
Valido dal 26 a 18 ore il 27 a 18 ore UTC


261715Z 2618/2718 31012G22KT CAVOK
BECMG 2706/2709 01009KT
BECMG 2709/2711 VRB03KT
TEMPO 2710/2713 SCT045
Nessun NOTAM noto per questo aeroporto.



MetMap, La meteo Aeronautica in un colpo d'occhio ! - Copyright ORBIFLY Dicembre 2007 - Disclaimer

ORBIFLY MET'MAP TEAM :

Programmazione e sviluppo : Alexandra Zaïnal
Concezione e sviluppo : Baudouin d'Aumeries
Co-Programmazione e sviluppo : Marc-Olivier Méhu
Supporto tecnico e logistico : Manuel Goepfert
Aiuto per la traduzione : Arnaldo La Scala

Contatto : metmap@orbifly.com




FONTI E CREDITI :

   NOAA